Time;durP1;ratioP1;P1;durP2;ratioP2;P2;SDS_P1;SDS_P2;PMS_P1;PMS_P2;Temp;Humidity;BMP_temperature;BMP_pressure;BME280_temperature;BME280_humidity;BME280_pressure;Samples;Min_cycle;Max_cycle;Signal;HPM_P1;HPM_P2
2022/07/19 00:00:13;;;;;;;5.20;2.70;;;19.50;99.90;;;;;;5095775;28;20169;-71
2022/07/19 00:02:39;;;;;;;7.13;3.33;;;19.50;99.90;;;;;;5095855;28;20283;-71
2022/07/19 00:05:07;;;;;;;5.53;2.67;;;19.50;99.90;;;;;;5096036;28;20202;-71
2022/07/19 00:07:33;;;;;;;7.20;3.20;;;19.50;99.90;;;;;;5096030;28;20594;-71
2022/07/19 00:09:59;;;;;;;6.97;2.65;;;19.50;99.90;;;;;;5095539;28;20249;-71
2022/07/19 00:12:25;;;;;;;5.13;2.60;;;19.50;99.90;;;;;;5095916;28;20216;-71
2022/07/19 00:14:52;;;;;;;3.42;2.45;;;19.40;99.90;;;;;;5094645;28;20204;-71
2022/07/19 00:17:18;;;;;;;6.35;2.97;;;19.30;99.90;;;;;;5095087;28;20536;-71
2022/07/19 00:19:43;;;;;;;6.10;2.90;;;19.20;99.90;;;;;;5095355;28;20189;-72
2022/07/19 00:22:09;;;;;;;5.47;3.22;;;19.10;99.90;;;;;;5095247;28;20610;-71
2022/07/19 00:24:35;;;;;;;4.43;2.90;;;19.10;99.90;;;;;;5095753;28;20169;-71
2022/07/19 00:27:01;;;;;;;6.15;3.00;;;19.10;99.90;;;;;;5095154;28;20169;-71
2022/07/19 00:29:26;;;;;;;6.53;3.05;;;19.00;99.90;;;;;;5093665;28;20642;-71
2022/07/19 00:31:52;;;;;;;6.72;2.88;;;19.00;99.90;;;;;;5094634;28;20196;-71
2022/07/19 00:34:18;;;;;;;7.20;3.20;;;19.00;99.90;;;;;;5093532;28;20201;-71
2022/07/19 00:36:44;;;;;;;5.65;2.90;;;19.00;99.90;;;;;;5093670;28;20177;-71
2022/07/19 00:39:09;;;;;;;4.57;2.55;;;18.90;99.90;;;;;;5094919;28;20173;-71
2022/07/19 00:41:42;;;;;;;6.13;3.05;;;18.80;99.90;;;;;;5094863;28;20202;-71
2022/07/19 00:44:11;;;;;;;5.15;2.67;;;18.80;99.90;;;;;;5094774;28;20205;-71
2022/07/19 00:46:37;;;;;;;5.43;2.45;;;18.80;99.90;;;;;;5094978;28;20641;-71
2022/07/19 00:49:04;;;;;;;5.30;2.83;;;18.70;99.90;;;;;;5094396;28;20189;-71
2022/07/19 00:51:34;;;;;;;5.28;3.20;;;18.70;99.90;;;;;;5094140;28;20188;-71
2022/07/19 00:54:01;;;;;;;4.55;2.70;;;18.60;99.90;;;;;;5094127;28;20232;-71
2022/07/19 00:56:27;;;;;;;6.25;3.30;;;18.50;99.90;;;;;;5094806;28;20203;-71
2022/07/19 00:58:54;;;;;;;5.07;2.80;;;18.40;99.90;;;;;;5094483;28;20247;-71
2022/07/19 01:01:20;;;;;;;4.55;2.95;;;18.40;99.90;;;;;;5094992;28;20189;-71
2022/07/19 01:03:47;;;;;;;6.47;2.90;;;18.30;99.90;;;;;;5094411;28;20230;-76
2022/07/19 01:06:12;;;;;;;4.68;2.95;;;18.30;99.90;;;;;;5094467;28;20192;-71
2022/07/19 01:08:39;;;;;;;5.78;2.97;;;18.20;99.90;;;;;;5094990;28;20176;-71
2022/07/19 01:11:05;;;;;;;7.18;2.85;;;18.20;99.90;;;;;;5094422;28;20188;-71
2022/07/19 01:13:32;;;;;;;7.80;3.40;;;18.20;99.90;;;;;;5094438;28;20157;-71
2022/07/19 01:15:58;;;;;;;4.03;2.83;;;18.20;99.90;;;;;;5094283;28;20220;-71
2022/07/19 01:18:24;;;;;;;5.65;2.72;;;18.20;99.90;;;;;;5094252;28;20646;-71
2022/07/19 01:20:51;;;;;;;5.25;3.08;;;18.10;99.90;;;;;;5092917;28;20200;-71
2022/07/19 01:23:17;;;;;;;7.20;3.40;;;18.10;99.90;;;;;;5094089;28;20238;-71
2022/07/19 01:25:43;;;;;;;7.32;2.90;;;18.00;99.90;;;;;;5094604;28;20638;-70
2022/07/19 01:28:09;;;;;;;4.28;2.88;;;18.00;99.90;;;;;;5093330;28;20173;-71
2022/07/19 01:30:36;;;;;;;5.10;3.15;;;18.00;99.90;;;;;;5094446;28;20169;-71
2022/07/19 01:33:03;;;;;;;5.07;2.70;;;17.90;99.90;;;;;;5094010;28;20219;-71
2022/07/19 01:35:29;;;;;;;5.22;2.83;;;18.00;99.90;;;;;;5093940;28;20201;-71
2022/07/19 01:37:55;;;;;;;4.70;2.72;;;18.00;99.90;;;;;;5093596;28;20579;-71
2022/07/19 01:40:22;;;;;;;7.28;3.67;;;18.00;99.90;;;;;;5093727;28;20683;-71
2022/07/19 01:42:48;;;;;;;4.22;2.80;;;17.90;99.90;;;;;;5094026;28;20260;-71
2022/07/19 01:45:15;;;;;;;6.85;3.38;;;17.80;99.90;;;;;;5092529;28;20215;-71
2022/07/19 01:47:42;;;;;;;7.13;3.40;;;17.80;99.90;;;;;;5093700;28;20638;-71
2022/07/19 01:50:08;;;;;;;5.85;2.78;;;17.60;99.90;;;;;;5092628;28;20667;-71
2022/07/19 01:52:34;;;;;;;4.72;2.83;;;17.60;99.90;;;;;;5093442;28;20196;-71
2022/07/19 01:55:00;;;;;;;4.15;2.90;;;17.60;99.90;;;;;;5093596;28;20273;-71
2022/07/19 01:57:28;;;;;;;9.13;3.20;;;17.60;99.90;;;;;;5093561;28;20247;-71
2022/07/19 01:59:54;;;;;;;5.57;2.97;;;17.60;99.90;;;;;;5093996;28;20165;-71
2022/07/19 02:02:20;;;;;;;4.78;3.00;;;17.50;99.90;;;;;;5093496;28;20251;-71
2022/07/19 02:04:46;;;;;;;6.10;2.97;;;17.40;99.90;;;;;;5093826;28;20209;-71
2022/07/19 02:07:12;;;;;;;9.15;3.63;;;17.40;99.90;;;;;;5093540;28;20300;-71
2022/07/19 02:09:38;;;;;;;3.88;3.10;;;17.30;99.90;;;;;;5093491;28;20166;-71
2022/07/19 02:12:04;;;;;;;7.40;3.15;;;17.30;99.90;;;;;;5093680;28;20527;-71
2022/07/19 02:14:29;;;;;;;6.05;3.00;;;17.30;99.90;;;;;;5094309;28;20287;-71
2022/07/19 02:16:55;;;;;;;7.32;2.80;;;17.30;99.90;;;;;;5094467;28;20166;-71
2022/07/19 02:19:21;;;;;;;3.53;2.55;;;17.20;99.90;;;;;;5093097;28;20189;-71
2022/07/19 02:21:47;;;;;;;5.72;3.25;;;17.20;99.90;;;;;;5093974;28;20213;-71
2022/07/19 02:24:13;;;;;;;7.05;3.60;;;17.20;99.90;;;;;;5093240;28;20228;-71
2022/07/19 02:26:39;;;;;;;5.35;3.17;;;17.20;99.90;;;;;;5093571;28;20169;-71
2022/07/19 02:29:05;;;;;;;5.28;3.45;;;17.20;99.90;;;;;;5093427;28;20726;-71
2022/07/19 02:31:33;;;;;;;6.43;3.13;;;17.10;99.90;;;;;;5093405;28;20669;-71
2022/07/19 02:33:59;;;;;;;4.07;3.10;;;17.00;99.90;;;;;;5093524;28;20220;-71
2022/07/19 02:36:25;;;;;;;5.38;3.35;;;17.00;99.90;;;;;;5093336;28;20661;-71
2022/07/19 02:38:51;;;;;;;5.65;3.42;;;17.00;99.90;;;;;;5093663;28;20177;-71
2022/07/19 02:41:17;;;;;;;5.22;3.10;;;17.00;99.90;;;;;;5097501;28;20189;-71
2022/07/19 02:43:43;;;;;;;8.45;3.50;;;17.00;99.90;;;;;;5095806;28;20215;-71
2022/07/19 02:46:09;;;;;;;9.85;3.75;;;17.00;99.90;;;;;;5096951;28;20169;-71
2022/07/19 02:48:35;;;;;;;4.97;3.50;;;17.00;99.90;;;;;;5097179;28;20177;-71
2022/07/19 02:51:01;;;;;;;8.35;3.05;;;17.00;99.90;;;;;;5097067;28;20200;-71
2022/07/19 02:53:27;;;;;;;5.85;3.30;;;16.90;99.90;;;;;;5096749;28;20185;-71
2022/07/19 02:55:53;;;;;;;5.18;3.50;;;16.80;99.90;;;;;;5096900;28;20193;-71
2022/07/19 02:58:19;;;;;;;7.85;3.00;;;16.80;99.90;;;;;;5096922;28;20166;-71
2022/07/19 03:00:45;;;;;;;4.72;3.22;;;16.80;99.90;;;;;;5097198;28;20199;-71
2022/07/19 03:05:55;;;;;;;6.43;3.28;;;16.70;99.90;;;;;;5097283;28;20199;-71
2022/07/19 03:08:21;;;;;;;5.53;3.38;;;16.70;99.90;;;;;;5096541;28;20181;-71
2022/07/19 03:10:47;;;;;;;3.65;2.95;;;16.60;99.90;;;;;;5095197;28;20193;-71
2022/07/19 03:13:13;;;;;;;7.95;3.08;;;16.60;99.90;;;;;;5096597;28;20261;-71
2022/07/19 03:15:39;;;;;;;8.75;3.20;;;16.60;99.90;;;;;;5095176;28;20208;-71
2022/07/19 03:18:05;;;;;;;5.50;3.58;;;16.60;99.90;;;;;;5097346;28;20185;-71
2022/07/19 03:20:31;;;;;;;5.65;3.38;;;16.60;99.90;;;;;;5096762;28;20201;-72
2022/07/19 03:22:57;;;;;;;8.48;3.40;;;16.60;99.90;;;;;;5096058;28;20176;-72
2022/07/19 03:25:23;;;;;;;5.82;3.40;;;16.60;99.90;;;;;;5096354;28;20204;-72
2022/07/19 03:27:49;;;;;;;9.75;4.05;;;16.50;99.90;;;;;;5096232;28;20539;-72
2022/07/19 03:30:15;;;;;;;9.45;3.72;;;16.50;99.90;;;;;;5096612;28;20189;-70
2022/07/19 03:32:41;;;;;;;5.88;3.65;;;16.50;99.90;;;;;;5096049;28;20189;-70
2022/07/19 03:35:08;;;;;;;7.22;3.50;;;16.50;99.90;;;;;;5096537;28;20229;-70
2022/07/19 03:37:34;;;;;;;9.45;3.80;;;16.40;99.90;;;;;;5094565;28;20177;-71
2022/07/19 03:39:59;;;;;;;6.70;3.78;;;16.30;99.90;;;;;;5095682;28;20169;-70
2022/07/19 03:42:25;;;;;;;6.18;3.60;;;16.30;99.90;;;;;;5096324;28;20220;-70
2022/07/19 03:44:51;;;;;;;4.50;3.40;;;16.30;99.90;;;;;;5095845;28;20181;-70
2022/07/19 03:47:17;;;;;;;5.72;3.33;;;16.30;99.90;;;;;;5096413;28;20248;-70
2022/07/19 03:49:43;;;;;;;6.63;3.40;;;16.30;99.90;;;;;;5094818;28;20177;-70
2022/07/19 03:52:09;;;;;;;9.27;3.38;;;16.30;99.90;;;;;;5094240;28;20203;-70
2022/07/19 03:54:35;;;;;;;5.22;3.55;;;16.10;99.90;;;;;;5095160;28;20211;-70
2022/07/19 03:57:01;;;;;;;5.75;3.42;;;16.10;99.90;;;;;;5095782;28;20244;-70
2022/07/19 03:59:27;;;;;;;5.57;3.50;;;16.10;99.90;;;;;;5095594;28;20248;-70
2022/07/19 04:01:52;;;;;;;5.57;3.78;;;16.10;99.90;;;;;;5095773;28;20246;-70
2022/07/19 04:04:18;;;;;;;5.25;3.58;;;16.00;99.90;;;;;;5096001;28;20526;-70
2022/07/19 04:06:44;;;;;;;5.60;3.38;;;16.00;99.90;;;;;;5094233;28;20185;-70
2022/07/19 04:09:10;;;;;;;9.98;3.85;;;16.00;99.90;;;;;;5095110;28;20169;-70
2022/07/19 04:11:39;;;;;;;7.22;3.40;;;16.10;99.90;;;;;;5095564;28;20271;-70
2022/07/19 04:14:05;;;;;;;6.85;3.70;;;16.00;99.90;;;;;;5095533;28;20189;-70
2022/07/19 04:16:30;;;;;;;8.52;3.80;;;16.10;99.90;;;;;;5095789;28;20157;-70
2022/07/19 04:18:56;;;;;;;6.25;3.47;;;16.20;99.90;;;;;;5095170;28;20200;-70
2022/07/19 04:21:22;;;;;;;4.35;3.53;;;16.20;99.90;;;;;;5095222;28;20208;-70
2022/07/19 04:23:48;;;;;;;6.00;3.22;;;16.30;99.90;;;;;;5094969;28;20184;-71
2022/07/19 04:26:13;;;;;;;8.25;3.80;;;16.40;99.90;;;;;;5095171;28;20252;-70
2022/07/19 04:28:39;;;;;;;8.65;3.63;;;16.40;99.90;;;;;;5095084;28;20204;-70
2022/07/19 04:31:05;;;;;;;5.57;3.65;;;16.40;99.90;;;;;;5094791;28;20192;-70
2022/07/19 04:33:31;;;;;;;6.38;3.78;;;16.40;99.90;;;;;;5095327;28;20219;-70
2022/07/19 04:35:56;;;;;;;9.90;3.55;;;16.40;99.90;;;;;;5095122;28;20197;-70
2022/07/19 04:38:22;;;;;;;6.35;3.72;;;16.50;99.90;;;;;;5095199;28;20177;-70
2022/07/19 04:40:49;;;;;;;5.60;3.63;;;16.50;99.90;;;;;;5095194;28;20268;-70
2022/07/19 04:43:16;;;;;;;10.60;3.08;;;16.60;99.90;;;;;;5095198;28;20170;-70
2022/07/19 04:45:44;;;;;;;7.30;3.80;;;16.60;99.90;;;;;;5094785;28;20305;-70
2022/07/19 04:48:10;;;;;;;8.27;3.55;;;16.70;99.90;;;;;;5094863;28;20177;-70
2022/07/19 04:50:36;;;;;;;7.60;3.25;;;16.80;99.90;;;;;;5094819;28;20174;-70
2022/07/19 04:53:03;;;;;;;11.07;3.92;;;16.80;99.90;;;;;;5094444;28;20327;-70
2022/07/19 04:55:28;;;;;;;8.00;3.80;;;16.90;99.90;;;;;;5094556;28;20201;-70
2022/07/19 04:57:54;;;;;;;4.70;3.17;;;17.00;99.90;;;;;;5095094;28;20222;-70
2022/07/19 05:00:20;;;;;;;6.55;4.00;;;17.10;99.90;;;;;;5095248;28;20188;-70
2022/07/19 05:02:46;;;;;;;7.30;4.28;;;17.10;99.90;;;;;;5092862;28;20177;-70
2022/07/19 05:05:11;;;;;;;9.80;4.40;;;17.20;99.90;;;;;;5094646;28;20248;-70
2022/07/19 05:07:37;;;;;;;9.48;3.65;;;17.30;99.90;;;;;;5094788;28;20173;-70
2022/07/19 05:10:05;;;;;;;10.45;3.80;;;17.40;99.90;;;;;;5093950;28;20664;-70
2022/07/19 05:12:31;;;;;;;7.85;3.60;;;17.50;99.90;;;;;;5094488;28;20606;-70
2022/07/19 05:14:58;;;;;;;7.45;3.47;;;17.50;99.90;;;;;;5094041;28;20204;-70
2022/07/19 05:17:24;;;;;;;7.88;3.25;;;17.60;99.90;;;;;;5094493;28;20640;-70
2022/07/19 05:19:50;;;;;;;7.57;3.15;;;17.60;99.90;;;;;;5092816;28;20638;-70
2022/07/19 05:22:16;;;;;;;6.97;3.35;;;17.70;99.90;;;;;;5094143;28;20207;-70
2022/07/19 05:24:41;;;;;;;5.72;3.30;;;17.80;99.90;;;;;;5093840;28;20189;-70
2022/07/19 05:27:07;;;;;;;5.47;4.03;;;17.90;99.90;;;;;;5094044;28;20194;-70
2022/07/19 05:29:33;;;;;;;6.95;3.65;;;17.90;99.90;;;;;;5092620;28;20199;-70
2022/07/19 05:31:59;;;;;;;7.03;3.40;;;18.00;99.90;;;;;;5093953;28;20688;-70
2022/07/19 05:34:24;;;;;;;5.75;3.33;;;18.10;99.90;;;;;;5093780;28;20688;-70
2022/07/19 05:36:50;;;;;;;6.80;3.42;;;18.20;99.90;;;;;;5093470;28;20635;-70
2022/07/19 05:39:16;;;;;;;8.18;3.70;;;18.30;99.90;;;;;;5093354;28;20244;-70
2022/07/19 05:41:42;;;;;;;6.47;3.20;;;18.40;99.90;;;;;;5093896;28;20319;-70
2022/07/19 05:44:08;;;;;;;5.60;3.40;;;18.50;99.90;;;;;;5092413;28;20185;-70
2022/07/19 05:46:37;;;;;;;8.73;3.50;;;18.60;99.90;;;;;;5094156;28;20527;-70
2022/07/19 05:49:02;;;;;;;9.30;3.30;;;18.60;99.90;;;;;;5092581;28;20657;-70
2022/07/19 05:51:28;;;;;;;6.55;3.67;;;18.70;99.90;;;;;;5094429;28;20196;-70
2022/07/19 05:53:54;;;;;;;6.78;3.38;;;18.80;99.90;;;;;;5093629;28;20595;-70
2022/07/19 05:56:20;;;;;;;8.20;3.95;;;18.90;99.90;;;;;;5094194;28;20177;-70
2022/07/19 05:58:45;;;;;;;4.57;3.03;;;19.00;99.90;;;;;;5093400;28;20177;-71
2022/07/19 06:01:32;;;;;;;10.57;3.80;;;19.10;99.90;;;;;;5093826;28;20201;-70
2022/07/19 06:03:59;;;;;;;6.47;3.45;;;19.20;99.90;;;;;;5093921;28;20238;-70
2022/07/19 06:06:35;;;;;;;5.05;3.28;;;19.30;99.90;;;;;;5093938;28;20173;-71
2022/07/19 06:09:02;;;;;;;6.35;3.30;;;19.40;99.90;;;;;;5093954;28;20173;-70
2022/07/19 06:11:29;;;;;;;7.63;3.78;;;19.50;99.90;;;;;;5093244;28;20189;-71
2022/07/19 06:13:55;;;;;;;6.75;3.95;;;19.60;99.90;;;;;;5095967;28;20259;-71
2022/07/19 06:16:22;;;;;;;6.70;3.67;;;19.70;99.90;;;;;;5096652;28;20176;-73
2022/07/19 06:18:48;;;;;;;9.05;3.83;;;19.80;99.90;;;;;;5096125;28;20189;-72
2022/07/19 06:21:16;;;;;;;5.93;3.50;;;19.90;99.90;;;;;;5097997;28;20562;-72
2022/07/19 06:23:42;;;;;;;5.00;3.00;;;20.00;99.90;;;;;;5095834;28;20661;-72
2022/07/19 06:26:09;;;;;;;8.00;3.17;;;20.10;99.90;;;;;;5097353;28;20646;-72
2022/07/19 06:28:35;;;;;;;5.47;3.33;;;20.20;99.90;;;;;;5097185;28;20181;-72
2022/07/19 06:31:01;;;;;;;8.98;3.13;;;20.30;99.90;;;;;;5097609;28;20192;-71
2022/07/19 06:33:26;;;;;;;8.00;3.40;;;20.40;99.90;;;;;;5095953;28;20177;-71
2022/07/19 06:35:53;;;;;;;6.32;3.20;;;20.50;99.90;;;;;;5096270;28;20239;-72
2022/07/19 06:38:19;;;;;;;3.90;2.75;;;20.60;99.90;;;;;;5096866;28;20693;-72
2022/07/19 06:40:45;;;;;;;7.55;3.33;;;20.70;99.90;;;;;;5097687;28;20272;-73
2022/07/19 06:43:11;;;;;;;5.90;3.00;;;20.80;99.90;;;;;;5095752;28;20169;-72
2022/07/19 06:45:37;;;;;;;5.97;3.42;;;20.90;99.90;;;;;;5096963;28;20201;-72
2022/07/19 06:48:03;;;;;;;4.78;3.00;;;21.00;99.90;;;;;;5097132;28;20181;-72
2022/07/19 06:50:29;;;;;;;7.80;3.47;;;21.10;99.90;;;;;;5096783;28;20637;-72
2022/07/19 06:52:55;;;;;;;7.30;3.10;;;21.30;99.90;;;;;;5097120;28;20188;-72
2022/07/19 06:55:21;;;;;;;6.65;3.15;;;21.40;99.90;;;;;;5095181;28;20667;-72
2022/07/19 06:57:46;;;;;;;4.07;2.72;;;21.50;99.90;;;;;;5096760;28;20652;-72
2022/07/19 07:00:13;;;;;;;5.30;3.15;;;21.60;99.90;;;;;;5096742;28;20291;-72
2022/07/19 07:02:40;;;;;;;5.60;2.88;;;21.80;99.90;;;;;;5096528;28;20192;-72
2022/07/19 07:05:08;;;;;;;9.35;3.17;;;21.90;99.90;;;;;;5095172;28;20177;-72
2022/07/19 07:07:34;;;;;;;4.72;3.13;;;22.00;99.90;;;;;;5096593;28;20173;-73
2022/07/19 07:10:02;;;;;;;5.80;2.95;;;22.10;99.90;;;;;;5096313;28;20183;-72
2022/07/19 07:12:29;;;;;;;3.95;2.78;;;22.20;99.90;;;;;;5096415;28;20193;-72
2022/07/19 07:14:55;;;;;;;5.90;3.05;;;22.30;99.90;;;;;;5096524;28;20232;-72
2022/07/19 07:17:21;;;;;;;4.97;2.88;;;22.40;99.90;;;;;;5095228;28;20211;-72
2022/07/19 07:19:47;;;;;;;6.82;3.40;;;22.50;99.90;;;;;;5096402;28;20162;-72
2022/07/19 07:22:13;;;;;;;5.90;3.03;;;22.60;99.90;;;;;;5094864;28;20199;-72
2022/07/19 07:24:38;;;;;;;4.70;3.00;;;22.70;99.90;;;;;;5095732;28;20189;-72
2022/07/19 07:27:04;;;;;;;9.25;2.97;;;22.90;99.90;;;;;;5096518;28;20165;-73
2022/07/19 07:29:30;;;;;;;5.30;3.08;;;23.00;99.90;;;;;;5095971;28;20248;-72
2022/07/19 07:31:56;;;;;;;4.68;2.92;;;23.10;99.90;;;;;;5094671;28;20232;-72
2022/07/19 07:34:22;;;;;;;4.97;2.92;;;23.20;99.90;;;;;;5095895;28;20273;-72
2022/07/19 07:36:48;;;;;;;6.30;3.15;;;23.40;99.90;;;;;;5096029;28;20176;-72
2022/07/19 07:39:14;;;;;;;7.53;2.63;;;23.50;99.90;;;;;;5095711;28;20173;-72
2022/07/19 07:41:40;;;;;;;6.05;2.78;;;23.60;99.90;;;;;;5094486;28;20222;-72
2022/07/19 07:44:06;;;;;;;7.75;3.08;;;23.70;99.90;;;;;;5096083;28;20169;-72
2022/07/19 07:46:32;;;;;;;5.78;2.83;;;23.90;99.90;;;;;;5096033;28;20177;-72
2022/07/19 07:48:58;;;;;;;9.88;3.10;;;23.90;99.90;;;;;;5095643;28;20196;-73
2022/07/19 07:51:24;;;;;;;10.88;3.40;;;24.10;99.90;;;;;;5095598;28;20225;-73
2022/07/19 07:53:50;;;;;;;4.03;2.33;;;24.20;99.90;;;;;;5095267;28;20533;-73
2022/07/19 07:56:15;;;;;;;5.55;2.97;;;24.30;99.90;;;;;;5095495;28;20198;-73
2022/07/19 07:58:41;;;;;;;5.25;2.60;;;24.50;99.90;;;;;;5095667;28;20174;-72
2022/07/19 08:01:07;;;;;;;7.00;3.42;;;24.60;99.90;;;;;;5095857;28;20231;-72
2022/07/19 08:03:33;;;;;;;5.15;2.85;;;24.70;99.90;;;;;;5095526;28;20172;-72
2022/07/19 08:05:58;;;;;;;5.10;2.90;;;24.90;99.90;;;;;;5095298;28;20582;-73
2022/07/19 08:08:26;;;;;;;6.53;2.80;;;25.00;99.90;;;;;;5095354;28;20196;-73
2022/07/19 08:10:56;;;;;;;6.82;2.97;;;25.20;99.90;;;;;;5095195;28;20196;-73
2022/07/19 08:13:23;;;;;;;7.57;2.80;;;25.40;99.90;;;;;;5095339;28;20173;-72
2022/07/19 08:15:49;;;;;;;8.98;3.20;;;25.60;99.90;;;;;;5095378;28;20208;-73
2022/07/19 08:18:15;;;;;;;4.10;2.90;;;25.80;99.90;;;;;;5095086;28;20181;-72
2022/07/19 08:20:41;;;;;;;6.90;2.70;;;26.00;99.90;;;;;;5095091;28;20632;-72
2022/07/19 08:23:07;;;;;;;5.47;3.03;;;26.10;99.90;;;;;;5093785;28;20547;-72
2022/07/19 08:25:34;;;;;;;7.72;3.00;;;26.50;99.90;;;;;;5093564;28;20188;-72
2022/07/19 08:28:00;;;;;;;5.88;2.70;;;26.70;99.90;;;;;;5094992;28;20173;-72
2022/07/19 08:30:26;;;;;;;4.72;2.90;;;26.90;99.90;;;;;;5094890;28;20169;-73
2022/07/19 08:32:52;;;;;;;5.22;2.83;;;27.10;99.90;;;;;;5095370;28;20197;-72
2022/07/19 08:35:18;;;;;;;7.70;2.90;;;27.40;99.90;;;;;;5094758;28;20224;-72
2022/07/19 08:37:44;;;;;;;4.15;2.85;;;27.60;99.90;;;;;;5094838;28;20173;-72
2022/07/19 08:40:10;;;;;;;3.53;2.30;;;27.90;99.90;;;;;;5093263;28;20176;-72
2022/07/19 08:42:36;;;;;;;4.80;2.40;;;28.20;99.90;;;;;;5094999;28;20217;-72
2022/07/19 08:45:06;;;;;;;6.97;2.60;;;28.40;99.90;;;;;;5094220;28;20546;-73
2022/07/19 08:47:33;;;;;;;5.15;2.38;;;28.60;99.90;;;;;;5095287;28;20173;-72
2022/07/19 08:50:00;;;;;;;5.32;2.35;;;28.70;99.90;;;;;;5094877;28;20173;-72
2022/07/19 08:52:26;;;;;;;5.53;2.45;;;29.00;99.90;;;;;;5093169;28;20201;-72
2022/07/19 08:54:54;;;;;;;5.35;2.65;;;29.20;99.90;;;;;;5094057;28;20200;-72
2022/07/19 09:00:05;;;;;;;3.33;2.72;;;29.80;99.90;;;;;;5094636;28;20248;-72
2022/07/19 09:02:30;;;;;;;10.38;2.55;;;30.00;99.60;;;;;;5094214;28;20184;-72
2022/07/19 09:05:05;;;;;;;5.22;2.60;;;30.30;98.40;;;;;;5094271;28;20654;-72
2022/07/19 09:07:31;;;;;;;3.47;2.17;;;30.50;97.30;;;;;;5094511;28;20180;-72
2022/07/19 09:10:17;;;;;;;5.70;2.60;;;30.70;98.40;;;;;;5094011;28;20642;-72
2022/07/19 09:13:07;;;;;;;8.55;2.80;;;31.00;98.60;;;;;;5094353;28;20697;-74
2022/07/19 09:15:49;;;;;;;6.82;2.50;;;31.10;98.30;;;;;;5092752;28;20284;-73
2022/07/19 09:18:22;;;;;;;5.32;2.60;;;31.30;97.70;;;;;;5093902;28;20195;-73
2022/07/19 09:21:00;;;;;;;4.47;2.30;;;31.50;94.70;;;;;;5093910;28;20185;-72
2022/07/19 09:23:27;;;;;;;3.35;2.20;;;31.70;94.30;;;;;;5102327;28;20220;-72
2022/07/19 09:25:55;;;;;;;2.60;2.10;;;31.90;92.90;;;;;;5114148;28;20263;-72
2022/07/19 09:28:23;;;;;;;8.52;2.50;;;32.10;94.00;;;;;;5114214;28;20536;-73
2022/07/19 09:30:51;;;;;;;2.83;2.25;;;32.20;94.20;;;;;;5114369;28;20680;-73
2022/07/19 09:33:19;;;;;;;6.65;1.90;;;32.40;94.50;;;;;;5114137;28;20568;-72
2022/07/19 09:35:48;;;;;;;4.00;2.42;;;32.50;91.70;;;;;;5114028;28;20195;-73
2022/07/19 09:38:25;;;;;;;3.63;2.10;;;32.60;89.50;;;;;;5114336;28;20209;-73
2022/07/19 09:40:54;;;;;;;4.70;2.33;;;32.70;91.00;;;;;;5113845;28;20192;-72
2022/07/19 09:43:22;;;;;;;5.90;2.35;;;32.80;86.90;;;;;;5114079;28;20179;-72
2022/07/19 09:45:49;;;;;;;6.38;2.40;;;32.90;86.60;;;;;;5114265;28;20221;-73
2022/07/19 09:48:16;;;;;;;4.80;2.10;;;33.00;88.50;;;;;;5113081;28;20173;-72
2022/07/19 09:50:44;;;;;;;7.30;2.25;;;33.10;85.70;;;;;;5113869;28;20173;-72
2022/07/19 09:53:10;;;;;;;6.00;2.17;;;33.10;89.00;;;;;;5113804;28;20180;-72
2022/07/19 09:55:36;;;;;;;4.15;2.10;;;33.20;84.70;;;;;;5113739;28;20198;-73
2022/07/19 09:58:03;;;;;;;3.85;2.05;;;33.40;85.20;;;;;;5114106;28;20569;-74
2022/07/19 10:00:29;;;;;;;2.58;1.92;;;33.50;83.70;;;;;;5113819;28;20178;-72
2022/07/19 10:02:57;;;;;;;3.33;1.90;;;33.50;82.40;;;;;;5113864;28;20207;-72
2022/07/19 10:05:25;;;;;;;2.33;1.73;;;33.50;80.50;;;;;;5113848;28;20259;-74
2022/07/19 10:07:51;;;;;;;3.80;2.08;;;33.60;80.30;;;;;;5112451;28;20208;-74
2022/07/19 10:10:19;;;;;;;4.00;2.10;;;33.60;83.50;;;;;;5113566;28;20254;-73
2022/07/19 10:12:46;;;;;;;4.05;2.05;;;33.70;80.70;;;;;;5113722;28;20599;-74
2022/07/19 10:15:15;;;;;;;4.32;2.20;;;33.80;80.70;;;;;;5114232;28;20283;-73
2022/07/19 10:18:14;;;;;;;5.32;2.42;;;33.80;78.60;;;;;;5112296;28;20184;-74
2022/07/19 10:20:46;;;;;;;4.82;2.00;;;34.00;78.20;;;;;;5113536;28;20161;-74
2022/07/19 10:23:12;;;;;;;4.38;2.00;;;34.10;81.00;;;;;;5113795;28;20179;-74
2022/07/19 10:25:56;;;;;;;5.03;2.38;;;34.10;75.00;;;;;;5113401;28;20169;-74
2022/07/19 10:28:39;;;;;;;5.13;2.63;;;34.20;79.00;;;;;;5113861;28;20497;-74
2022/07/19 10:31:27;;;;;;;5.65;2.90;;;34.30;79.90;;;;;;5114529;28;20606;-74
2022/07/19 10:34:05;;;;;;;4.95;2.40;;;34.40;80.20;;;;;;5113619;28;20172;-74
2022/07/19 10:36:35;;;;;;;4.22;2.28;;;34.40;75.30;;;;;;5112247;28;20385;-72
2022/07/19 10:39:19;;;;;;;6.35;2.35;;;34.40;74.70;;;;;;5113841;28;20173;-74
2022/07/19 10:42:04;;;;;;;4.45;2.00;;;34.50;76.10;;;;;;5112160;28;20563;-72
2022/07/19 10:44:30;;;;;;;3.58;2.00;;;34.50;75.50;;;;;;5113418;28;20172;-73
2022/07/19 10:46:56;;;;;;;3.60;2.05;;;34.60;75.40;;;;;;5113729;28;20267;-75
2022/07/19 10:49:41;;;;;;;5.72;2.53;;;34.70;74.00;;;;;;5113343;28;20214;-74
2022/07/19 10:52:29;;;;;;;7.10;2.40;;;34.70;70.20;;;;;;5112093;28;20203;-72
2022/07/19 10:55:20;;;;;;;2.67;2.00;;;34.70;69.30;;;;;;5113118;28;20200;-74
2022/07/19 10:58:08;;;;;;;5.78;2.10;;;34.70;71.70;;;;;;5113295;28;20234;-73
2022/07/19 11:00:48;;;;;;;5.13;2.70;;;34.70;70.40;;;;;;5114760;28;20548;-72
2022/07/19 11:03:23;;;;;;;3.25;2.22;;;34.70;63.80;;;;;;5117416;28;20243;-74
2022/07/19 11:05:54;;;;;;;4.50;2.10;;;34.80;64.10;;;;;;5117268;28;20172;-71
2022/07/19 11:08:38;;;;;;;3.35;2.20;;;34.90;66.90;;;;;;5115753;28;20179;-71
2022/07/19 11:11:08;;;;;;;4.72;2.30;;;35.00;67.30;;;;;;5116725;28;20613;-68
2022/07/19 11:13:34;;;;;;;3.33;2.40;;;35.00;65.60;;;;;;5116998;28;20717;-70
2022/07/19 11:16:02;;;;;;;3.30;2.40;;;35.10;60.50;;;;;;5116995;28;20202;-70
2022/07/19 11:18:29;;;;;;;3.78;2.00;;;35.10;66.40;;;;;;5116775;28;20180;-70
2022/07/19 11:20:58;;;;;;;2.03;1.70;;;35.20;64.10;;;;;;5115419;28;20196;-71
2022/07/19 11:23:27;;;;;;;4.30;2.50;;;35.40;71.10;;;;;;5117209;28;20206;-71
2022/07/19 11:26:05;;;;;;;3.88;2.45;;;35.50;67.30;;;;;;5116501;28;20180;-71
2022/07/19 11:28:31;;;;;;;3.47;2.03;;;35.80;67.80;;;;;;5116979;28;20605;-71
2022/07/19 11:30:57;;;;;;;3.83;2.17;;;35.90;67.90;;;;;;5115355;28;20265;-70
2022/07/19 11:33:23;;;;;;;3.75;2.10;;;36.10;67.70;;;;;;5117276;28;20513;-73
2022/07/19 11:36:00;;;;;;;6.47;2.55;;;36.30;68.10;;;;;;5117000;28;20253;-73
2022/07/19 11:38:44;;;;;;;3.50;2.10;;;36.30;60.70;;;;;;5117013;28;20168;-73
2022/07/19 11:41:25;;;;;;;3.03;2.10;;;36.30;57.40;;;;;;5116629;28;20212;-73
2022/07/19 11:44:01;;;;;;;5.07;2.35;;;36.40;61.70;;;;;;5116808;28;20617;-73
2022/07/19 11:46:34;;;;;;;4.28;2.35;;;36.60;64.40;;;;;;5116499;28;20160;-73
2022/07/19 11:49:02;;;;;;;8.85;2.58;;;36.80;58.90;;;;;;5116573;28;20160;-73
2022/07/19 11:51:28;;;;;;;4.00;2.10;;;36.80;56.80;;;;;;5116796;28;20276;-73
2022/07/19 11:53:56;;;;;;;6.05;2.28;;;37.00;59.50;;;;;;5116321;28;20605;-73
2022/07/19 11:56:30;;;;;;;2.38;1.90;;;37.10;55.40;;;;;;5115916;27;20203;-73
2022/07/19 11:58:59;;;;;;;3.25;2.05;;;37.30;55.40;;;;;;5116237;28;20152;-74
2022/07/19 12:01:33;;;;;;;3.85;1.98;;;37.30;57.20;;;;;;5114685;28;20606;-73
2022/07/19 12:04:04;;;;;;;3.53;1.98;;;37.50;53.20;;;;;;5116338;28;20187;-73
2022/07/19 12:06:48;;;;;;;4.78;2.15;;;37.70;53.00;;;;;;5115056;28;20524;-73
2022/07/19 12:09:27;;;;;;;2.25;1.98;;;37.90;55.70;;;;;;5116238;28;20172;-73
2022/07/19 12:11:54;;;;;;;5.25;2.65;;;38.10;55.50;;;;;;5115245;28;20180;-70
2022/07/19 12:14:22;;;;;;;5.03;2.50;;;38.10;51.20;;;;;;5115804;28;20176;-73
2022/07/19 12:16:49;;;;;;;4.72;2.50;;;38.20;52.70;;;;;;5115727;28;20172;-73
2022/07/19 12:19:19;;;;;;;4.03;2.10;;;38.20;51.40;;;;;;5115889;28;20211;-73
2022/07/19 12:21:45;;;;;;;4.00;2.22;;;38.30;52.80;;;;;;5115555;28;20216;-73
2022/07/19 12:24:23;;;;;;;4.97;2.20;;;38.40;51.90;;;;;;5115375;27;20229;-73
2022/07/19 12:26:54;;;;;;;3.45;2.13;;;38.60;51.00;;;;;;5115974;28;20160;-70
2022/07/19 12:29:26;;;;;;;3.28;1.80;;;38.70;50.30;;;;;;5115496;28;20164;-71
2022/07/19 12:32:01;;;;;;;4.07;2.03;;;38.90;51.60;;;;;;5115736;28;20192;-71
2022/07/19 12:34:28;;;;;;;3.35;1.80;;;39.10;52.00;;;;;;5114204;28;20200;-70
2022/07/19 12:36:54;;;;;;;5.50;2.25;;;39.30;51.40;;;;;;5115399;28;20637;-72
2022/07/19 12:39:27;;;;;;;5.07;2.17;;;39.50;53.20;;;;;;5115257;28;20221;-73
2022/07/19 12:41:58;;;;;;;4.53;1.90;;;39.60;50.80;;;;;;5116280;28;20649;-72
2022/07/19 12:44:24;;;;;;;5.50;2.58;;;39.70;49.10;;;;;;5118017;28;20208;-73
2022/07/19 12:46:50;;;;;;;3.40;2.17;;;39.80;48.30;;;;;;5116699;28;20168;-71
2022/07/19 12:49:16;;;;;;;5.60;2.53;;;40.00;46.50;;;;;;5115907;28;20175;-71
2022/07/19 12:51:43;;;;;;;3.22;2.25;;;39.80;45.50;;;;;;5115669;28;20207;-70
2022/07/19 12:54:12;;;;;;;3.20;2.17;;;40.00;47.90;;;;;;5115209;28;20172;-70